Time;durP1;ratioP1;P1;durP2;ratioP2;P2;SDS_P1;SDS_P2;PMS_P1;PMS_P2;Temp;Humidity;BMP_temperature;BMP_pressure;BME280_temperature;BME280_humidity;BME280_pressure;Samples;Min_cycle;Max_cycle;Signal;HPM_P1;HPM_P2
2022/01/06 00:00:14;;;;;;;15.63;4.23;;;;;;;1.19;100.00;98775.53;5092311;28;20071;-79
2022/01/06 00:02:42;;;;;;;7.50;2.72;;;;;;;1.26;100.00;98789.25;5094835;28;20147;-79
2022/01/06 00:05:10;;;;;;;9.00;2.60;;;;;;;1.24;100.00;98784.88;5114195;27;20514;-79
2022/01/06 00:07:40;;;;;;;12.13;3.00;;;;;;;1.17;100.00;98772.16;5105047;28;20048;-80
2022/01/06 00:10:12;;;;;;;13.93;2.47;;;;;;;1.29;100.00;98786.28;5116767;28;20456;-80
2022/01/06 00:12:45;;;;;;;14.77;3.38;;;;;;;1.22;100.00;98770.78;5115886;28;20058;-80
2022/01/06 00:15:28;;;;;;;10.82;3.03;;;;;;;1.27;100.00;98789.13;5104217;28;20479;-79
2022/01/06 00:23:39;;;;;;;11.90;3.00;;;;;;;1.24;100.00;98776.00;5033884;28;20056;-80
2022/01/06 00:26:08;;;;;;;7.78;2.58;;;;;;;1.18;100.00;98774.69;5071301;28;20048;-80
2022/01/06 00:28:37;;;;;;;7.22;2.70;;;;;;;1.22;100.00;98777.97;5102067;28;20047;-80
2022/01/06 00:31:06;;;;;;;14.65;3.10;;;;;;;1.36;100.00;98792.81;5103058;27;20142;-80
2022/01/06 00:33:34;;;;;;;19.97;3.03;;;;;;;1.39;100.00;98781.81;5101843;28;20490;-80
2022/01/06 00:36:01;;;;;;;9.63;3.17;;;;;;;1.42;100.00;98789.59;5096304;28;20054;-79
2022/01/06 00:38:28;;;;;;;8.60;2.42;;;;;;;1.37;100.00;98778.41;5099386;28;20050;-80
2022/01/06 00:40:56;;;;;;;14.82;3.30;;;;;;;1.37;100.00;98781.97;5116252;28;20056;-80
2022/01/06 00:43:23;;;;;;;8.77;2.60;;;;;;;1.32;100.00;98762.75;5108499;28;20056;-79
2022/01/06 00:45:50;;;;;;;15.02;2.95;;;;;;;1.46;100.00;98787.47;5116482;27;20055;-81
2022/01/06 00:48:20;;;;;;;10.68;3.25;;;;;;;1.38;100.00;98774.78;5108806;28;20051;-81
2022/01/06 00:50:47;;;;;;;14.57;2.97;;;;;;;1.57;100.00;98795.41;5096393;28;20121;-80
2022/01/06 00:53:14;;;;;;;12.70;2.92;;;;;;;1.53;100.00;98794.81;5110132;28;20051;-80
2022/01/06 00:55:42;;;;;;;6.93;2.55;;;;;;;1.39;100.00;98779.16;5116051;28;20097;-80
2022/01/06 00:58:09;;;;;;;7.32;2.80;;;;;;;1.53;100.00;98797.50;5116470;27;20045;-80
2022/01/06 01:00:41;;;;;;;7.35;2.20;;;;;;;1.53;100.00;98791.31;5105235;28;20048;-80
2022/01/06 01:03:12;;;;;;;9.18;3.15;;;;;;;1.52;100.00;98797.66;5116807;28;20055;-80
2022/01/06 01:05:41;;;;;;;15.35;2.78;;;;;;;1.56;100.00;98805.28;5115856;28;20101;-80
2022/01/06 01:08:08;;;;;;;17.38;3.00;;;;;;;1.61;100.00;98817.41;5116297;28;20050;-79
2022/01/06 01:10:37;;;;;;;6.38;2.47;;;;;;;1.58;100.00;98811.38;5107977;28;20157;-80
2022/01/06 01:13:06;;;;;;;9.43;2.55;;;;;;;1.66;100.00;98825.91;5115823;28;20539;-80
2022/01/06 01:15:34;;;;;;;9.35;2.72;;;;;;;1.55;100.00;98810.75;5113729;28;20423;-78
2022/01/06 01:18:07;;;;;;;12.40;2.97;;;;;;;1.61;100.00;98809.38;5116211;28;20048;-78
2022/01/06 01:20:34;;;;;;;6.03;2.47;;;;;;;1.56;100.00;98807.13;5115408;28;20054;-78
2022/01/06 01:23:03;;;;;;;9.85;2.67;;;;;;;1.58;100.00;98816.72;5113792;28;20050;-78
2022/01/06 01:25:30;;;;;;;15.20;3.15;;;;;;;1.57;100.00;98819.53;5116065;28;20097;-78
2022/01/06 01:27:57;;;;;;;10.80;4.30;;;;;;;1.54;100.00;98823.31;5110774;28;20052;-77
2022/01/06 01:30:31;;;;;;;9.00;2.67;;;;;;;1.61;100.00;98837.00;5107862;28;20050;-78
2022/01/06 01:33:00;;;;;;;10.98;3.20;;;;;;;1.52;100.00;98817.28;5115752;27;20487;-78
2022/01/06 01:35:31;;;;;;;6.83;2.60;;;;;;;1.46;100.00;98817.81;5113264;28;20075;-78
2022/01/06 01:37:59;;;;;;;9.20;3.08;;;;;;;1.46;100.00;98816.94;5110920;28;20680;-79
2022/01/06 01:40:27;;;;;;;8.95;2.90;;;;;;;1.59;100.00;98839.84;5099936;28;20055;-78
2022/01/06 01:42:54;;;;;;;12.60;2.97;;;;;;;1.55;100.00;98842.91;5095618;28;20052;-79
2022/01/06 01:45:27;;;;;;;8.75;3.33;;;;;;;1.46;100.00;98823.16;5102156;28;20044;-78
2022/01/06 01:47:54;;;;;;;9.90;3.58;;;;;;;1.43;100.00;98826.13;5115423;28;20059;-79
2022/01/06 01:50:21;;;;;;;6.45;2.50;;;;;;;1.57;100.00;98857.88;5114033;28;20054;-79
2022/01/06 01:52:50;;;;;;;21.10;2.60;;;;;;;1.52;100.00;98833.34;5112028;28;20052;-78
2022/01/06 01:55:22;;;;;;;6.80;2.40;;;;;;;1.53;100.00;98842.22;5114860;27;20043;-79
2022/01/06 01:57:51;;;;;;;9.50;3.85;;;;;;;1.48;100.00;98839.09;5111307;27;20086;-79
2022/01/06 02:00:23;;;;;;;7.13;2.72;;;;;;;1.50;100.00;98837.13;5114681;28;20149;-79
2022/01/06 02:02:50;;;;;;;9.88;2.50;;;;;;;1.51;100.00;98836.16;5104970;28;20048;-78
2022/01/06 02:05:22;;;;;;;14.85;3.40;;;;;;;1.45;100.00;98842.06;5094741;28;20055;-78
2022/01/06 02:07:49;;;;;;;7.35;2.42;;;;;;;1.52;100.00;98848.56;5095139;28;20070;-79
2022/01/06 02:10:16;;;;;;;8.02;2.80;;;;;;;1.57;100.00;98838.28;5109541;28;20047;-79
2022/01/06 02:12:45;;;;;;;10.60;2.60;;;;;;;1.48;100.00;98831.91;5114376;28;20501;-79
2022/01/06 02:15:13;;;;;;;11.47;3.00;;;;;;;1.50;100.00;98835.28;5094791;27;20058;-79
2022/01/06 02:17:41;;;;;;;8.95;2.95;;;;;;;1.63;100.00;98843.09;5097127;28;20799;-79
2022/01/06 02:20:12;;;;;;;11.63;2.10;;;;;;;1.66;100.00;98861.59;5094517;28;20071;-79
2022/01/06 02:22:39;;;;;;;16.90;3.38;;;;;;;1.55;100.00;98846.47;5102955;28;20489;-79
2022/01/06 02:25:11;;;;;;;10.75;2.63;;;;;;;1.49;100.00;98833.63;5111963;28;20055;-79
2022/01/06 02:27:38;;;;;;;10.07;2.88;;;;;;;1.53;100.00;98856.44;5113849;28;20118;-79
2022/01/06 02:30:07;;;;;;;6.03;2.75;;;;;;;1.69;100.00;98860.47;5113689;28;20050;-78
2022/01/06 02:32:34;;;;;;;6.45;2.90;;;;;;;1.53;100.00;98850.25;5107893;28;20051;-79
2022/01/06 02:35:05;;;;;;;8.38;2.53;;;;;;;1.61;100.00;98860.28;5093937;28;20051;-79
2022/01/06 02:37:33;;;;;;;8.05;2.50;;;;;;;1.60;100.00;98851.41;5094546;28;20063;-79
2022/01/06 02:40:01;;;;;;;8.25;2.78;;;;;;;1.64;100.00;98862.69;5098017;28;20055;-79
2022/01/06 02:42:31;;;;;;;9.25;2.47;;;;;;;1.67;100.00;98865.09;5107815;28;20430;-78
2022/01/06 02:44:58;;;;;;;8.88;3.13;;;;;;;1.64;100.00;98868.94;5114876;28;20051;-79
2022/01/06 02:47:25;;;;;;;12.85;3.03;;;;;;;1.67;100.00;98874.03;5112095;28;20044;-79
2022/01/06 02:49:52;;;;;;;4.63;2.22;;;;;;;1.75;100.00;98881.38;5094005;28;20044;-78
2022/01/06 02:52:19;;;;;;;11.43;2.97;;;;;;;1.72;100.00;98874.44;5097812;28;20055;-79
2022/01/06 02:54:47;;;;;;;6.82;2.47;;;;;;;1.70;100.00;98881.78;5107061;28;20052;-79
2022/01/06 02:57:14;;;;;;;7.18;2.05;;;;;;;1.71;100.00;98896.03;5116219;27;20062;-79
2022/01/06 02:59:41;;;;;;;9.18;2.40;;;;;;;1.64;100.00;98882.31;5098393;28;20055;-78
2022/01/06 03:02:09;;;;;;;5.97;3.20;;;;;;;1.74;100.00;98903.78;5105426;28;20058;-79
2022/01/06 03:04:36;;;;;;;16.25;2.85;;;;;;;1.78;100.00;98902.53;5113967;28;20044;-79
2022/01/06 03:07:04;;;;;;;8.00;2.80;;;;;;;1.70;100.00;98891.63;5114107;28;20562;-79
2022/01/06 03:09:38;;;;;;;7.90;2.58;;;;;;;1.74;100.00;98907.31;5107868;28;20552;-79
2022/01/06 03:12:11;;;;;;;13.25;3.00;;;;;;;1.70;100.00;98899.69;5102432;28;20070;-78
2022/01/06 03:14:38;;;;;;;10.63;3.30;;;;;;;1.73;100.00;98915.47;5113865;28;20045;-79
2022/01/06 03:17:06;;;;;;;12.73;3.00;;;;;;;1.76;100.00;98921.44;5107373;28;20047;-80
2022/01/06 03:19:33;;;;;;;7.32;2.90;;;;;;;1.64;100.00;98909.13;5094052;28;20046;-79
2022/01/06 03:21:59;;;;;;;16.70;3.38;;;;;;;1.68;100.00;98912.38;5101613;28;20074;-79
2022/01/06 03:24:26;;;;;;;9.55;2.70;;;;;;;1.65;100.00;98912.66;5098750;28;20044;-79
2022/01/06 03:26:53;;;;;;;10.60;2.83;;;;;;;1.73;100.00;98913.66;5100288;28;20414;-79
2022/01/06 03:29:22;;;;;;;9.20;2.88;;;;;;;1.62;100.00;98913.75;5112814;28;20204;-79
2022/01/06 03:31:48;;;;;;;10.68;2.53;;;;;;;1.61;100.00;98904.00;5107636;28;20056;-79
2022/01/06 03:34:15;;;;;;;11.73;2.95;;;;;;;1.70;100.00;98924.66;5094665;28;20045;-79
2022/01/06 03:36:42;;;;;;;11.77;3.28;;;;;;;1.55;100.00;98905.41;5093368;28;20606;-80
2022/01/06 03:39:09;;;;;;;6.53;3.00;;;;;;;1.58;100.00;98923.03;5094393;28;20052;-79
2022/01/06 03:41:36;;;;;;;6.82;2.70;;;;;;;1.55;100.00;98917.94;5112427;28;20483;-79
2022/01/06 03:44:03;;;;;;;11.15;3.03;;;;;;;1.54;100.00;98927.81;5097750;28;20485;-79
2022/01/06 03:46:33;;;;;;;13.68;3.20;;;;;;;1.53;100.00;98942.19;5112109;28;20060;-79
2022/01/06 03:49:00;;;;;;;10.75;3.08;;;;;;;1.53;100.00;98941.34;5113164;28;20050;-79
2022/01/06 03:51:27;;;;;;;8.60;2.90;;;;;;;1.49;100.00;98926.50;5104032;28;20051;-79
2022/01/06 03:53:54;;;;;;;12.75;4.07;;;;;;;1.53;100.00;98944.03;5113400;28;20050;-79
2022/01/06 03:56:21;;;;;;;12.60;3.03;;;;;;;1.39;100.00;98919.28;5095701;28;20051;-79
2022/01/06 03:58:49;;;;;;;6.68;2.80;;;;;;;1.43;100.00;98954.72;5110957;27;20047;-79
2022/01/06 04:01:16;;;;;;;9.38;2.35;;;;;;;1.36;100.00;98948.16;5110294;28;20044;-79
2022/01/06 04:03:47;;;;;;;10.25;2.55;;;;;;;1.34;100.00;98942.06;5104621;28;20050;-79
2022/01/06 04:06:14;;;;;;;12.65;3.17;;;;;;;1.48;100.00;98959.66;5101679;27;20097;-79
2022/01/06 04:08:42;;;;;;;7.47;2.97;;;;;;;1.35;100.00;98936.59;5093185;28;20059;-79
2022/01/06 04:11:09;;;;;;;10.98;3.15;;;;;;;1.46;100.00;98954.44;5092924;28;20071;-79
2022/01/06 04:13:36;;;;;;;7.60;2.28;;;;;;;1.35;100.00;98944.63;5091965;28;20399;-79
2022/01/06 04:16:07;;;;;;;9.95;2.88;;;;;;;1.46;100.00;98969.66;5104672;28;20860;-79
2022/01/06 04:18:34;;;;;;;4.75;3.05;;;;;;;1.35;100.00;98949.97;5113272;27;20050;-79
2022/01/06 04:21:03;;;;;;;10.32;2.90;;;;;;;1.40;100.00;98954.94;5113156;28;20082;-79
2022/01/06 04:23:30;;;;;;;17.55;4.05;;;;;;;1.45;100.00;98962.59;5113594;28;20051;-79
2022/01/06 04:25:57;;;;;;;5.63;2.67;;;;;;;1.41;100.00;98953.97;5094482;28;20055;-79
2022/01/06 04:28:23;;;;;;;16.40;3.78;;;;;;;1.43;100.00;98962.75;5092863;28;20054;-79
2022/01/06 04:30:52;;;;;;;7.25;3.83;;;;;;;1.44;100.00;98966.25;5094775;28;20461;-79
2022/01/06 04:33:20;;;;;;;8.53;4.30;;;;;;;1.38;100.00;98965.78;5109791;28;20047;-79
2022/01/06 04:35:47;;;;;;;11.10;3.28;;;;;;;1.40;100.00;98968.34;5110063;28;20294;-79
2022/01/06 04:38:16;;;;;;;6.30;3.20;;;;;;;1.34;100.00;98950.97;5094650;28;20044;-80
2022/01/06 04:40:43;;;;;;;11.77;3.13;;;;;;;1.26;100.00;98926.66;5092803;28;20056;-80
2022/01/06 04:43:09;;;;;;;8.85;3.03;;;;;;;1.23;100.00;98938.50;5092947;28;20052;-79
2022/01/06 04:45:36;;;;;;;5.88;3.08;;;;;;;1.23;100.00;98954.59;5092728;28;20051;-79
2022/01/06 04:48:03;;;;;;;5.72;2.70;;;;;;;1.21;100.00;98964.56;5103968;28;20048;-79
2022/01/06 04:50:30;;;;;;;13.70;4.00;;;;;;;1.22;100.00;98968.94;5113038;28;20043;-79
2022/01/06 04:52:58;;;;;;;14.02;3.65;;;;;;;1.26;100.00;98982.91;5116401;28;20047;-79
2022/01/06 04:55:27;;;;;;;6.05;2.67;;;;;;;1.33;100.00;99002.00;5100423;28;20521;-79
2022/01/06 04:57:54;;;;;;;5.10;3.30;;;;;;;1.33;100.00;98980.56;5096358;28;20503;-79
2022/01/06 05:00:20;;;;;;;15.02;4.10;;;;;;;1.31;100.00;98980.72;5109964;28;20056;-79
2022/01/06 05:02:47;;;;;;;12.57;3.92;;;;;;;1.45;100.00;98995.59;5116590;28;20062;-79
2022/01/06 05:05:14;;;;;;;9.75;3.60;;;;;;;1.53;100.00;99000.28;5110286;28;20057;-80
2022/01/06 05:07:41;;;;;;;11.50;3.60;;;;;;;1.44;100.00;98993.06;5116065;28;20528;-79
2022/01/06 05:10:09;;;;;;;10.60;3.80;;;;;;;1.45;100.00;99011.66;5115917;28;20047;-79
2022/01/06 05:12:41;;;;;;;6.53;3.10;;;;;;;1.38;100.00;99016.69;5116472;28;20487;-79
2022/01/06 05:15:08;;;;;;;9.45;3.67;;;;;;;1.30;100.00;99002.25;5116348;28;20048;-80
2022/01/06 05:17:35;;;;;;;8.48;3.13;;;;;;;1.35;100.00;99005.38;5116004;28;20135;-80
2022/01/06 05:20:02;;;;;;;5.95;2.30;;;;;;;1.48;100.00;99007.88;5115941;27;20524;-79
2022/01/06 05:22:30;;;;;;;8.43;3.45;;;;;;;1.32;100.00;98995.78;5108720;27;20471;-79
2022/01/06 05:24:57;;;;;;;12.90;3.10;;;;;;;1.30;100.00;98989.72;5115933;28;20096;-79
2022/01/06 05:27:25;;;;;;;15.05;3.33;;;;;;;1.44;100.00;98991.22;5116051;28;20090;-79
2022/01/06 05:29:53;;;;;;;10.80;2.63;;;;;;;1.42;100.00;99010.09;5115559;28;20507;-80
2022/01/06 05:32:20;;;;;;;15.43;4.63;;;;;;;1.40;100.00;99024.59;5115943;28;20051;-79
2022/01/06 05:34:47;;;;;;;7.93;3.63;;;;;;;1.35;100.00;99011.59;5115712;27;20047;-79
2022/01/06 05:37:14;;;;;;;14.23;3.28;;;;;;;1.42;100.00;99014.63;5116214;28;20051;-79
2022/01/06 05:39:41;;;;;;;12.95;3.55;;;;;;;1.46;100.00;99031.25;5102052;28;20052;-80
2022/01/06 05:42:08;;;;;;;7.60;3.05;;;;;;;1.45;100.00;99016.19;5115684;28;20050;-80
2022/01/06 05:44:35;;;;;;;13.75;3.67;;;;;;;1.52;100.00;99017.34;5107379;28;20131;-79
2022/01/06 05:47:04;;;;;;;8.25;3.35;;;;;;;1.66;100.00;99024.22;5095166;28;20052;-79
2022/01/06 05:49:31;;;;;;;8.10;2.83;;;;;;;1.59;100.00;99026.56;5095040;28;20050;-80
2022/01/06 05:51:58;;;;;;;8.93;3.22;;;;;;;1.58;100.00;99027.53;5094856;28;20476;-79
2022/01/06 05:54:25;;;;;;;9.60;4.07;;;;;;;1.59;100.00;99026.56;5102535;28;20043;-79
2022/01/06 05:56:52;;;;;;;10.63;3.10;;;;;;;1.67;100.00;99058.06;5114597;28;20047;-79
2022/01/06 05:59:19;;;;;;;8.55;3.30;;;;;;;1.73;100.00;99042.31;5115254;28;20061;-79
2022/01/06 06:01:46;;;;;;;16.30;4.43;;;;;;;1.63;100.00;99043.25;5108902;28;20044;-79
2022/01/06 06:04:14;;;;;;;6.50;3.25;;;;;;;1.62;100.00;99034.34;5095010;28;20052;-79
2022/01/06 06:06:41;;;;;;;11.68;2.95;;;;;;;1.63;100.00;99041.41;5097149;28;20549;-79
2022/01/06 06:09:08;;;;;;;10.55;3.53;;;;;;;1.69;100.00;99048.91;5114048;28;20048;-79
2022/01/06 06:11:35;;;;;;;9.80;3.38;;;;;;;1.60;100.00;99041.66;5107388;28;20043;-79
2022/01/06 06:14:02;;;;;;;12.70;3.35;;;;;;;1.64;100.00;99052.97;5111583;28;20055;-79
2022/01/06 06:16:29;;;;;;;8.50;3.40;;;;;;;1.59;100.00;99045.31;5095116;28;20040;-80
2022/01/06 06:18:56;;;;;;;9.48;3.28;;;;;;;1.59;100.00;99051.50;5100282;28;20047;-79
2022/01/06 06:21:24;;;;;;;8.25;2.95;;;;;;;1.63;100.00;99062.84;5114971;28;20047;-79
2022/01/06 06:23:51;;;;;;;9.13;3.35;;;;;;;1.58;100.00;99065.03;5113128;28;20052;-79
2022/01/06 06:26:18;;;;;;;9.38;3.08;;;;;;;1.64;100.00;99063.69;5114701;28;20052;-79
2022/01/06 06:28:45;;;;;;;7.63;3.45;;;;;;;1.59;100.00;99072.13;5113408;28;20051;-79
2022/01/06 06:31:12;;;;;;;5.13;2.53;;;;;;;1.50;100.00;99062.19;5114266;28;20502;-79
2022/01/06 06:33:39;;;;;;;11.13;3.35;;;;;;;1.52;100.00;99078.97;5102864;27;20048;-79
2022/01/06 06:36:06;;;;;;;9.73;2.83;;;;;;;1.47;100.00;99083.88;5124434;27;20051;-79
2022/01/06 06:38:35;;;;;;;8.15;2.97;;;;;;;1.40;100.00;99080.84;5133009;27;20049;-79
2022/01/06 06:41:02;;;;;;;6.68;2.55;;;;;;;1.48;100.00;99085.59;5113706;28;20066;-79
2022/01/06 06:43:28;;;;;;;14.55;3.47;;;;;;;1.47;100.00;99089.22;5103646;27;20048;-79
2022/01/06 06:45:55;;;;;;;6.78;3.10;;;;;;;1.41;100.00;99080.72;5102454;28;20044;-79
2022/01/06 06:48:24;;;;;;;7.50;3.20;;;;;;;1.52;100.00;99098.59;5104723;28;20051;-79
2022/01/06 06:50:51;;;;;;;9.70;3.50;;;;;;;1.52;100.00;99103.94;5094629;28;20458;-79
2022/01/06 06:53:18;;;;;;;12.23;4.32;;;;;;;1.44;100.00;99087.66;5105501;28;20048;-79
2022/01/06 06:55:47;;;;;;;12.48;3.45;;;;;;;1.47;100.00;99091.91;5098423;28;20381;-78
2022/01/06 06:58:13;;;;;;;11.20;3.47;;;;;;;1.49;100.00;99108.69;5105916;28;20043;-79
2022/01/06 07:00:40;;;;;;;9.65;3.72;;;;;;;1.40;100.00;99110.31;5108042;28;20050;-79
2022/01/06 07:03:07;;;;;;;7.15;3.42;;;;;;;1.34;100.00;99102.78;5112256;28;20126;-79
2022/01/06 07:05:35;;;;;;;9.82;3.33;;;;;;;1.29;100.00;99113.88;5095013;28;20052;-79
2022/01/06 07:08:02;;;;;;;10.70;3.50;;;;;;;1.30;100.00;99120.94;5093074;28;20536;-79
2022/01/06 07:10:29;;;;;;;7.97;3.67;;;;;;;1.35;100.00;99121.41;5093119;28;20044;-79
2022/01/06 07:12:57;;;;;;;11.20;3.70;;;;;;;1.19;100.00;99113.81;5092617;28;20127;-79
2022/01/06 07:15:24;;;;;;;8.18;3.33;;;;;;;1.14;100.00;99121.34;5093134;28;20048;-79
2022/01/06 07:17:51;;;;;;;6.35;3.03;;;;;;;1.12;100.00;99114.44;5094992;28;20055;-79
2022/01/06 07:20:17;;;;;;;11.82;3.33;;;;;;;0.98;100.00;99116.41;5107738;28;20058;-78
2022/01/06 07:22:44;;;;;;;9.25;3.30;;;;;;;1.04;100.00;99129.31;5109061;28;20059;-78
2022/01/06 07:25:11;;;;;;;15.05;4.05;;;;;;;1.04;100.00;99126.63;5107818;28;20150;-79
2022/01/06 07:27:38;;;;;;;10.55;3.05;;;;;;;0.94;100.00;99120.31;5098382;28;20047;-78
2022/01/06 07:30:08;;;;;;;12.05;3.90;;;;;;;0.88;100.00;99112.78;5112596;28;20058;-78
2022/01/06 07:32:42;;;;;;;16.17;6.93;;;;;;;0.90;100.00;99124.22;5096027;28;20392;-79
2022/01/06 07:35:10;;;;;;;10.80;4.30;;;;;;;0.87;100.00;99124.47;5113251;28;20050;-78
2022/01/06 07:37:37;;;;;;;15.45;4.15;;;;;;;0.87;100.00;99121.78;5093948;28;20054;-79
2022/01/06 07:40:07;;;;;;;8.90;3.85;;;;;;;0.85;100.00;99137.97;5093145;28;20052;-80
2022/01/06 07:42:34;;;;;;;10.95;3.75;;;;;;;0.84;100.00;99124.72;5106614;28;20047;-79
2022/01/06 07:45:02;;;;;;;7.63;3.88;;;;;;;0.76;100.00;99133.34;5110685;28;20406;-79
2022/01/06 07:47:32;;;;;;;13.68;4.32;;;;;;;0.84;100.00;99144.31;5108633;27;20075;-79
2022/01/06 07:50:00;;;;;;;14.18;3.80;;;;;;;0.82;100.00;99154.28;5101439;28;20101;-79
2022/01/06 07:52:27;;;;;;;13.93;4.63;;;;;;;0.89;100.00;99154.66;5103532;28;20044;-79
2022/01/06 07:54:53;;;;;;;12.07;4.55;;;;;;;0.87;100.00;99173.50;5093218;28;20091;-79
2022/01/06 07:57:21;;;;;;;16.15;3.72;;;;;;;0.79;100.00;99161.72;5107333;28;20066;-79
2022/01/06 07:59:47;;;;;;;11.27;3.85;;;;;;;0.98;100.00;99177.13;5103108;28;20062;-79
2022/01/06 08:02:14;;;;;;;17.20;4.55;;;;;;;0.88;100.00;99164.47;5101383;28;20051;-79
2022/01/06 08:04:43;;;;;;;9.68;4.03;;;;;;;0.98;100.00;99182.47;5092629;28;20075;-79
2022/01/06 08:07:10;;;;;;;11.55;4.47;;;;;;;0.77;100.00;99174.34;5092238;28;20048;-79
2022/01/06 08:09:38;;;;;;;7.28;3.90;;;;;;;0.67;100.00;99177.75;5092534;28;20114;-79
2022/01/06 08:12:05;;;;;;;11.20;3.65;;;;;;;0.72;100.00;99196.13;5092268;28;20056;-79
2022/01/06 08:14:32;;;;;;;7.97;3.63;;;;;;;0.64;100.00;99201.22;5092350;28;20066;-79
2022/01/06 08:17:00;;;;;;;12.20;4.13;;;;;;;0.58;100.00;99196.38;5097327;28;20047;-78
2022/01/06 08:19:27;;;;;;;11.60;3.97;;;;;;;0.52;100.00;99208.41;5108513;28;20043;-78
2022/01/06 08:21:56;;;;;;;9.90;3.60;;;;;;;0.33;100.00;99206.28;5113181;28;20052;-79
2022/01/06 08:24:23;;;;;;;12.93;4.38;;;;;;;0.16;100.00;99191.56;5109097;28;20100;-78
2022/01/06 08:26:50;;;;;;;16.50;3.90;;;;;;;0.41;100.00;99197.69;5117001;28;20044;-79
2022/01/06 08:29:17;;;;;;;13.43;5.30;;;;;;;0.33;100.00;99223.22;5110530;28;20043;-81
2022/01/06 08:31:43;;;;;;;9.98;4.80;;;;;;;0.48;100.00;99222.97;5116442;27;20048;-80
2022/01/06 08:34:10;;;;;;;6.75;4.03;;;;;;;0.37;100.00;99212.28;5114537;28;20048;-78
2022/01/06 08:36:37;;;;;;;12.25;4.65;;;;;;;0.28;100.00;99214.66;5116965;28;20075;-79
2022/01/06 08:39:05;;;;;;;14.45;5.85;;;;;;;0.37;100.00;99197.06;5112737;28;20497;-78
2022/01/06 08:41:34;;;;;;;10.23;4.68;;;;;;;0.60;100.00;99224.69;5110711;27;20044;-78
2022/01/06 08:44:01;;;;;;;12.48;4.85;;;;;;;0.63;100.00;99215.56;5113821;28;20087;-78
2022/01/06 08:46:27;;;;;;;24.05;5.22;;;;;;;0.63;100.00;99219.13;5097203;28;20048;-78
2022/01/06 08:48:54;;;;;;;25.10;4.90;;;;;;;0.95;100.00;99220.19;5108230;28;20411;-79
2022/01/06 08:51:21;;;;;;;17.48;5.32;;;;;;;1.04;100.00;99235.56;5116327;28;20040;-78
2022/01/06 08:53:48;;;;;;;9.68;4.85;;;;;;;0.98;100.00;99217.28;5116804;28;20122;-78
2022/01/06 08:56:16;;;;;;;8.38;5.07;;;;;;;1.13;100.00;99228.59;5095273;28;20052;-78
2022/01/06 08:58:43;;;;;;;10.02;4.53;;;;;;;1.08;100.00;99226.28;5095797;28;20048;-79
2022/01/06 09:01:11;;;;;;;10.40;4.43;;;;;;;1.22;100.00;99225.19;5114440;28;20052;-78
2022/01/06 09:03:38;;;;;;;15.57;4.97;;;;;;;1.36;100.00;99249.03;5107582;28;20051;-79
2022/01/06 09:06:05;;;;;;;14.07;5.55;;;;;;;1.45;100.00;99239.38;5109661;28;20073;-79
2022/01/06 09:08:32;;;;;;;20.95;5.65;;;;;;;1.58;100.00;99244.59;5116158;27;20048;-79
2022/01/06 09:10:59;;;;;;;14.98;5.45;;;;;;;1.63;100.00;99241.56;5098970;28;20047;-79
2022/01/06 09:13:27;;;;;;;12.90;4.40;;;;;;;1.71;100.00;99241.75;5095515;28;20047;-78
2022/01/06 09:15:55;;;;;;;14.20;4.57;;;;;;;1.75;100.00;99246.75;5110409;28;20052;-78
2022/01/06 09:18:22;;;;;;;13.55;4.35;;;;;;;1.86;100.00;99259.25;5115816;28;20044;-79
2022/01/06 09:20:49;;;;;;;13.25;5.07;;;;;;;1.99;100.00;99268.94;5099538;28;20055;-79
2022/01/06 09:23:16;;;;;;;24.45;5.10;;;;;;;2.06;100.00;99264.78;5114208;28;20495;-78
2022/01/06 09:25:43;;;;;;;13.65;5.28;;;;;;;2.03;100.00;99270.41;5103337;28;20131;-79
2022/01/06 09:28:10;;;;;;;10.20;5.22;;;;;;;2.27;100.00;99284.47;5095261;28;20056;-79
2022/01/06 09:30:38;;;;;;;6.68;4.07;;;;;;;2.26;100.00;99266.66;5103812;28;20118;-78
2022/01/06 09:33:05;;;;;;;14.82;4.50;;;;;;;2.46;100.00;99278.38;5115588;28;20048;-78
2022/01/06 09:35:33;;;;;;;13.93;4.63;;;;;;;2.39;100.00;99270.97;5109722;28;20048;-78
2022/01/06 09:38:00;;;;;;;14.10;4.20;;;;;;;2.40;100.00;99270.84;5114773;28;20056;-79
2022/01/06 09:40:27;;;;;;;13.93;4.38;;;;;;;2.43;100.00;99275.13;5114485;28;20491;-78
2022/01/06 09:42:55;;;;;;;14.13;5.82;;;;;;;2.47;100.00;99269.34;5103927;28;20052;-78
2022/01/06 09:45:25;;;;;;;12.95;5.43;;;;;;;2.56;100.00;99289.19;5098476;28;20048;-79
2022/01/06 09:47:54;;;;;;;17.13;5.55;;;;;;;2.68;100.00;99276.56;5113935;28;20048;-79
2022/01/06 09:50:21;;;;;;;18.57;5.07;;;;;;;2.98;100.00;99299.03;5113865;28;20527;-84
2022/01/06 09:52:49;;;;;;;13.88;5.25;;;;;;;3.07;100.00;99281.28;5099541;28;20051;-84
2022/01/06 09:55:15;;;;;;;10.65;4.32;;;;;;;3.20;100.00;99292.66;5106956;28;20048;-79
2022/01/06 09:57:58;;;;;;;12.65;4.68;;;;;;;3.09;100.00;99282.00;5097229;28;20052;-79
2022/01/06 10:00:26;;;;;;;15.88;3.85;;;;;;;3.14;100.00;99288.66;5092869;28;20082;-79
2022/01/06 10:02:57;;;;;;;7.35;3.70;;;;;;;3.15;100.00;99294.91;5109787;27;20108;-79
2022/01/06 10:05:25;;;;;;;11.02;2.72;;;;;;;3.00;100.00;99272.91;5113805;27;20616;-79
2022/01/06 10:07:53;;;;;;;12.82;3.30;;;;;;;2.97;100.00;99292.00;5115167;28;20410;-79
2022/01/06 10:10:25;;;;;;;15.10;4.13;;;;;;;3.00;100.00;99280.97;5110381;28;20105;-79
2022/01/06 10:12:56;;;;;;;13.55;3.25;;;;;;;3.00;100.00;99272.91;5094107;28;20052;-79
2022/01/06 10:15:25;;;;;;;12.02;3.30;;;;;;;3.02;100.00;99281.69;5098471;28;20126;-79
2022/01/06 10:17:52;;;;;;;12.13;3.63;;;;;;;2.96;100.00;99299.16;5114983;27;20047;-79
2022/01/06 10:20:23;;;;;;;9.15;2.95;;;;;;;2.89;100.00;99278.34;5110390;28;20047;-79
2022/01/06 10:22:51;;;;;;;9.02;2.38;;;;;;;2.98;100.00;99272.19;5109374;28;20069;-79
2022/01/06 10:25:23;;;;;;;7.88;3.00;;;;;;;2.98;100.00;99290.97;5106297;28;20050;-79
2022/01/06 10:27:52;;;;;;;7.20;2.40;;;;;;;2.90;100.00;99290.81;5114638;27;20055;-79
2022/01/06 10:30:19;;;;;;;10.95;3.17;;;;;;;2.96;100.00;99301.03;5112151;28;20083;-79
2022/01/06 10:32:46;;;;;;;6.60;2.60;;;;;;;2.83;100.00;99287.78;5102166;28;20066;-79
2022/01/06 10:35:20;;;;;;;9.88;2.28;;;;;;;2.86;100.00;99298.28;5113377;28;20052;-79
2022/01/06 10:37:49;;;;;;;9.10;2.55;;;;;;;2.97;100.00;99305.41;5093559;28;20048;-79
2022/01/06 10:40:22;;;;;;;7.35;3.17;;;;;;;2.90;100.00;99297.03;5093973;28;20048;-79
2022/01/06 10:42:51;;;;;;;12.00;3.80;;;;;;;2.82;100.00;99299.53;5108589;28;20050;-80
2022/01/06 10:45:24;;;;;;;9.80;2.88;;;;;;;2.65;100.00;99284.88;5113700;28;20044;-79
2022/01/06 10:47:54;;;;;;;9.98;2.63;;;;;;;2.75;100.00;99292.97;5109799;28;20145;-80
2022/01/06 10:50:22;;;;;;;;;;;;;;;2.77;100.00;99302.63;5108123;28;20047;-79
2022/01/06 10:52:52;;;;;;;5.30;2.05;;;;;;;2.61;100.00;99283.44;5113170;28;19920;-79
2022/01/06 10:55:21;;;;;;;11.40;2.60;;;;;;;2.58;100.00;99297.94;5114246;28;20054;-80
2022/01/06 10:57:57;;;;;;;9.93;2.45;;;;;;;2.60;100.00;99303.19;5112780;28;20055;-79
2022/01/06 11:00:26;;;;;;;12.85;1.83;;;;;;;2.56;100.00;99283.81;5099791;28;20556;-79
2022/01/06 11:02:53;;;;;;;7.03;2.13;;;;;;;2.68;100.00;99289.13;5100203;28;20500;-79
2022/01/06 11:05:20;;;;;;;16.77;2.88;;;;;;;2.72;100.00;99301.28;5093517;28;20051;-79
2022/01/06 11:07:47;;;;;;;7.70;2.15;;;;;;;2.80;100.00;99307.72;5110968;28;20404;-79
2022/01/06 11:10:21;;;;;;;8.48;2.42;;;;;;;2.66;100.00;99302.66;5113623;28;20395;-79
2022/01/06 11:12:49;;;;;;;7.20;1.83;;;;;;;2.73;100.00;99297.63;5109510;27;20044;-79
2022/01/06 11:15:17;;;;;;;11.35;3.60;;;;;;;2.89;100.00;99315.94;5105840;28;20051;-79
2022/01/06 11:17:48;;;;;;;4.93;1.77;;;;;;;2.97;100.00;99311.63;5113827;28;20052;-79
2022/01/06 11:20:23;;;;;;;13.02;2.83;;;;;;;3.00;100.00;99306.00;5107018;28;20051;-79
2022/01/06 11:22:52;;;;;;;10.15;2.50;;;;;;;3.06;100.00;99303.78;5112797;28;20048;-79
2022/01/06 11:25:31;;;;;;;14.02;2.60;;;;;;;3.12;100.00;99295.19;5108322;28;20046;-79
2022/01/06 11:28:03;;;;;;;6.18;1.73;;;;;;;3.14;100.00;99290.50;5093637;28;20044;-79
2022/01/06 11:30:40;;;;;;;14.70;3.20;;;;;;;3.21;100.00;99302.44;5092087;28;20570;-79
2022/01/06 11:33:08;;;;;;;9.95;2.38;;;;;;;3.21;100.00;99299.75;5093452;28;20040;-79
2022/01/06 11:35:48;;;;;;;7.72;2.20;;;;;;;3.14;100.00;99298.56;5092736;28;20402;-79
2022/01/06 11:38:19;;;;;;;6.05;2.10;;;;;;;3.34;100.00;99299.50;5093155;28;20062;-80